sensor_id;sensor_type;location;lat;lon;timestamp;P1;durP1;ratioP1;P2;durP2;ratioP2
6671;SDS011;3372;48.690;12.362;2023-03-01T15:56:37;26.80;;;16.23;;
6671;SDS011;3372;48.690;12.362;2023-03-01T15:59:03;27.90;;;16.90;;
6671;SDS011;3372;48.690;12.362;2023-03-01T16:01:29;33.63;;;24.17;;
6671;SDS011;3372;48.690;12.362;2023-03-01T16:03:55;34.33;;;21.00;;
6671;SDS011;3372;48.690;12.362;2023-03-01T16:06:23;24.13;;;16.47;;
6671;SDS011;3372;48.690;12.362;2023-03-01T16:08:48;29.87;;;17.50;;
6671;SDS011;3372;48.690;12.362;2023-03-01T16:11:15;24.80;;;17.23;;
6671;SDS011;3372;48.690;12.362;2023-03-01T16:13:43;43.90;;;29.90;;
6671;SDS011;3372;48.690;12.362;2023-03-01T16:16:12;43.70;;;30.10;;
6671;SDS011;3372;48.690;12.362;2023-03-01T16:18:44;40.27;;;27.43;;
6671;SDS011;3372;48.690;12.362;2023-03-01T16:21:12;31.83;;;21.77;;
6671;SDS011;3372;48.690;12.362;2023-03-01T16:23:41;27.70;;;19.07;;
6671;SDS011;3372;48.690;12.362;2023-03-01T16:26:08;32.77;;;20.33;;
6671;SDS011;3372;48.690;12.362;2023-03-01T16:28:34;28.53;;;17.33;;
6671;SDS011;3372;48.690;12.362;2023-03-01T16:31:00;26.47;;;17.70;;
6671;SDS011;3372;48.690;12.362;2023-03-01T16:33:26;25.00;;;15.73;;
6671;SDS011;3372;48.690;12.362;2023-03-01T16:35:52;24.57;;;15.73;;
6671;SDS011;3372;48.690;12.362;2023-03-01T16:38:18;24.57;;;16.47;;
6671;SDS011;3372;48.690;12.362;2023-03-01T16:40:46;28.50;;;16.97;;
6671;SDS011;3372;48.690;12.362;2023-03-01T16:43:13;26.07;;;16.13;;
6671;SDS011;3372;48.690;12.362;2023-03-01T16:45:39;26.13;;;16.20;;
6671;SDS011;3372;48.690;12.362;2023-03-01T16:48:09;27.97;;;15.70;;
6671;SDS011;3372;48.690;12.362;2023-03-01T16:50:35;31.90;;;19.93;;
6671;SDS011;3372;48.690;12.362;2023-03-01T16:53:01;30.30;;;18.53;;
6671;SDS011;3372;48.690;12.362;2023-03-01T16:55:26;26.00;;;16.63;;
6671;SDS011;3372;48.690;12.362;2023-03-01T16:57:52;23.33;;;14.40;;
6671;SDS011;3372;48.690;12.362;2023-03-01T17:00:18;24.00;;;13.87;;
6671;SDS011;3372;48.690;12.362;2023-03-01T17:02:43;20.60;;;11.20;;
6671;SDS011;3372;48.690;12.362;2023-03-01T17:05:09;20.50;;;12.43;;
6671;SDS011;3372;48.690;12.362;2023-03-01T17:07:38;19.80;;;11.67;;
6671;SDS011;3372;48.690;12.362;2023-03-01T17:10:05;21.67;;;12.07;;
6671;SDS011;3372;48.690;12.362;2023-03-01T17:12:33;18.87;;;11.43;;
6671;SDS011;3372;48.690;12.362;2023-03-01T17:14:59;18.00;;;11.93;;
6671;SDS011;3372;48.690;12.362;2023-03-01T17:17:25;21.83;;;12.43;;
6671;SDS011;3372;48.690;12.362;2023-03-01T17:19:51;22.20;;;12.90;;
6671;SDS011;3372;48.690;12.362;2023-03-01T17:22:17;20.50;;;12.07;;
6671;SDS011;3372;48.690;12.362;2023-03-01T17:24:44;19.03;;;11.97;;
6671;SDS011;3372;48.690;12.362;2023-03-01T17:27:10;20.63;;;11.77;;
6671;SDS011;3372;48.690;12.362;2023-03-01T17:29:37;21.33;;;11.23;;
6671;SDS011;3372;48.690;12.362;2023-03-01T17:32:03;19.13;;;10.40;;
6671;SDS011;3372;48.690;12.362;2023-03-01T17:48:05;17.83;;;10.23;;
6671;SDS011;3372;48.690;12.362;2023-03-01T17:50:31;22.67;;;10.40;;
6671;SDS011;3372;48.690;12.362;2023-03-01T17:52:58;20.10;;;11.00;;
6671;SDS011;3372;48.690;12.362;2023-03-01T19:05:14;32.40;;;18.23;;
